Погода Шаблиевкана 2 недели

Ростовская область, Россия

20 мая-02 июня
  • 20мая
    Сегодня
    +11°
    +23°
    Практически безоблачно
    ВремяПогодаТемператураВлажностьДавлениеВетер, м/сВероятность осадков
    00:00Ясно и безоблачно+12°C91 %758 мм1.4 м/с2 %
    03:00Ясно и безоблачно+11°C90 %758 мм1.3 м/с2 %
    06:00Ясно и безоблачно+12°C88 %759 мм1.1 м/с2 %
    09:00Ясно и безоблачно+18°C63 %759 мм2.3 м/с2 %
    12:00Практически безоблачно+22°C45 %759 мм2.9 м/с2 %
    15:00Практически безоблачно+23°C41 %759 мм2.3 м/с1 %
    18:00Ясно и безоблачно+22°C46 %759 мм2.7 м/с1 %
    21:00Ясно и безоблачно+17°C69 %760 мм1.6 м/с2 %
  • 21мая
    Вторник
    +12°
    +26°
    Ясно и безоблачно
    ВремяПогодаТемператураВлажностьДавлениеВетер, м/сВероятность осадков
    00:00Ясно и безоблачно+14°C78 %760 мм1.8 м/с2 %
    03:00Ясно и безоблачно+13°C86 %760 мм1.4 м/с2 %
    06:00Ясно и безоблачно+14°C75 %761 мм1.5 м/с2 %
    09:00Ясно и безоблачно+21°C47 %761 мм2.6 м/с2 %
    12:00Ясно и безоблачно+24°C31 %761 мм3.2 м/с2 %
    15:00Ясно и безоблачно+25°C27 %761 мм3.3 м/с2 %
    18:00Ясно и безоблачно+23°C39 %760 мм2.3 м/с2 %
    21:00Ясно и безоблачно+17°C50 %760 мм1.4 м/с2 %
  • 22мая
    Среда
    +11°
    +26°
    Ясно и безоблачно
    ВремяПогодаТемператураВлажностьДавлениеВетер, м/сВероятность осадков
    00:00Ясно и безоблачно+15°C59 %760 мм1.9 м/с2 %
    03:00Ясно и безоблачно+13°C61 %760 мм1.9 м/с2 %
    06:00Ясно и безоблачно+14°C59 %760 мм1.8 м/с2 %
    09:00Ясно и безоблачно+21°C48 %760 мм3.4 м/с2 %
    12:00Ясно и безоблачно+24°C31 %760 мм4.3 м/с2 %
    15:00Ясно и безоблачно+25°C29 %759 мм4.6 м/с2 %
    18:00Ясно и безоблачно+24°C35 %758 мм3.0 м/с2 %
    21:00Ясно и безоблачно+18°C42 %758 мм1.9 м/с2 %
  • 23мая
    Четверг
    +15°
    +26°
    Ясно и безоблачно
    ВремяПогодаТемператураВлажностьДавлениеВетер, м/сВероятность осадков
    00:00Ясно и безоблачно+16°C55 %758 мм2.2 м/с2 %
    03:00Ясно и безоблачно+13°C54 %758 мм1.7 м/с2 %
    06:00Ясно и безоблачно+13°C62 %758 мм1.8 м/с2 %
    09:00Ясно и безоблачно+20°C48 %759 мм3.7 м/с2 %
    12:00Ясно и безоблачно+24°C28 %758 мм4.7 м/с2 %
    15:00Ясно и безоблачно+26°C23 %757 мм4.7 м/с2 %
    18:00Ясно и безоблачно+24°C32 %757 мм3.0 м/с2 %
    21:00Ясно и безоблачно+20°C42 %758 мм3.2 м/с2 %
  • 24мая
    Пятница
    +13°
    +27°
    Ясно и безоблачно
    ВремяПогодаТемператураВлажностьДавлениеВетер, м/сВероятность осадков
    00:00Ясно и безоблачно+17°C43 %758 мм2.6 м/с2 %
    03:00Ясно и безоблачно+15°C51 %759 мм2.9 м/с2 %
    06:00Ясно и безоблачно+16°C67 %760 мм2.5 м/с2 %
    09:00Ясно и безоблачно+21°C61 %760 мм5.2 м/с2 %
    12:00Ясно и безоблачно+25°C42 %761 мм5.8 м/с2 %
    15:00Ясно и безоблачно+26°C35 %760 мм6.1 м/с3 %
    18:00Ясно и безоблачно+23°C33 %760 мм6.7 м/с2 %
    21:00Ясно и безоблачно+19°C29 %762 мм5.0 м/с2 %
Мы используем cookies
Соглашаюсь